Litchfield, New Hampshire
Current Conditions -  °F | °C
As of 12:51 AM on Tuesday 21 Oct 2014 (Local Time) from KASH Reporting Station
Few Clouds Few Clouds  
Wind Chill: 47°   Ceiling: Unl
Heat Index: 47°   Visibility: 10mi
Dew Point: 41°   Wind: 0mph
Humidity: 80%   Direction: NA
Pressure: 30"   Gusts: NA
Location:  42.84°N, 71.48°W
Report Text: KASH 210451Z AUTO 00000KT 10SM FEW100 08/05 A3000 RMK AO2 T00830050 SLP409 $
Loading
Personal Weather Stations






























Interactive Weather Map
Tropical Storm Tracking
New forecast layout! Learn more

10-Day Weather Forecast

Advertisements
Track Severe Weather on mobile